sensor_id;sensor_type;location;lat;lon;timestamp;P1;durP1;ratioP1;P2;durP2;ratioP2
16502;SDS011;53067;48.114;11.694;2023-04-16T00:00:29;3.00;;;2.80;;
16502;SDS011;53067;48.114;11.694;2023-04-16T00:02:56;3.33;;;3.13;;
16502;SDS011;53067;48.114;11.694;2023-04-16T00:05:24;3.73;;;3.43;;
16502;SDS011;53067;48.114;11.694;2023-04-16T00:07:52;3.40;;;3.20;;
16502;SDS011;53067;48.114;11.694;2023-04-16T00:10:19;3.40;;;3.17;;
16502;SDS011;53067;48.114;11.694;2023-04-16T00:12:47;3.40;;;3.20;;
16502;SDS011;53067;48.114;11.694;2023-04-16T00:15:15;3.73;;;3.40;;
16502;SDS011;53067;48.114;11.694;2023-04-16T00:17:42;4.27;;;3.97;;
16502;SDS011;53067;48.114;11.694;2023-04-16T00:20:10;3.80;;;3.50;;
16502;SDS011;53067;48.114;11.694;2023-04-16T00:22:38;4.00;;;3.70;;
16502;SDS011;53067;48.114;11.694;2023-04-16T00:25:05;4.10;;;3.80;;
16502;SDS011;53067;48.114;11.694;2023-04-16T00:27:33;4.00;;;3.70;;
16502;SDS011;53067;48.114;11.694;2023-04-16T00:30:01;4.20;;;3.90;;
16502;SDS011;53067;48.114;11.694;2023-04-16T00:32:29;4.70;;;4.30;;
16502;SDS011;53067;48.114;11.694;2023-04-16T00:34:56;4.70;;;4.30;;
16502;SDS011;53067;48.114;11.694;2023-04-16T00:37:25;4.60;;;4.30;;
16502;SDS011;53067;48.114;11.694;2023-04-16T00:39:52;4.97;;;4.57;;
16502;SDS011;53067;48.114;11.694;2023-04-16T00:42:20;4.87;;;4.37;;
16502;SDS011;53067;48.114;11.694;2023-04-16T00:44:47;4.63;;;4.23;;
16502;SDS011;53067;48.114;11.694;2023-04-16T00:47:15;4.90;;;4.50;;
16502;SDS011;53067;48.114;11.694;2023-04-16T00:49:43;4.33;;;3.93;;
16502;SDS011;53067;48.114;11.694;2023-04-16T00:52:10;5.10;;;4.70;;
16502;SDS011;53067;48.114;11.694;2023-04-16T00:54:38;4.70;;;4.30;;
16502;SDS011;53067;48.114;11.694;2023-04-16T00:57:06;4.47;;;4.17;;
16502;SDS011;53067;48.114;11.694;2023-04-16T00:59:33;4.70;;;4.30;;
16502;SDS011;53067;48.114;11.694;2023-04-16T01:02:01;4.57;;;4.17;;
16502;SDS011;53067;48.114;11.694;2023-04-16T01:04:29;4.63;;;4.27;;
16502;SDS011;53067;48.114;11.694;2023-04-16T01:06:57;4.13;;;3.83;;
16502;SDS011;53067;48.114;11.694;2023-04-16T01:09:24;4.27;;;3.90;;
16502;SDS011;53067;48.114;11.694;2023-04-16T01:11:52;4.40;;;4.10;;
16502;SDS011;53067;48.114;11.694;2023-04-16T01:14:19;4.60;;;4.20;;
16502;SDS011;53067;48.114;11.694;2023-04-16T01:16:47;4.30;;;4.00;;
16502;SDS011;53067;48.114;11.694;2023-04-16T01:19:14;4.13;;;3.83;;
16502;SDS011;53067;48.114;11.694;2023-04-16T01:21:42;4.30;;;4.00;;
16502;SDS011;53067;48.114;11.694;2023-04-16T01:24:09;4.20;;;3.90;;
16502;SDS011;53067;48.114;11.694;2023-04-16T01:26:37;4.10;;;3.80;;
16502;SDS011;53067;48.114;11.694;2023-04-16T01:29:04;4.63;;;4.10;;
16502;SDS011;53067;48.114;11.694;2023-04-16T01:31:32;4.50;;;4.10;;
16502;SDS011;53067;48.114;11.694;2023-04-16T01:33:59;4.23;;;3.93;;
16502;SDS011;53067;48.114;11.694;2023-04-16T01:36:27;5.07;;;4.67;;
16502;SDS011;53067;48.114;11.694;2023-04-16T01:38:54;4.30;;;4.00;;
16502;SDS011;53067;48.114;11.694;2023-04-16T01:41:22;5.10;;;4.57;;
16502;SDS011;53067;48.114;11.694;2023-04-16T01:43:49;4.90;;;4.50;;
16502;SDS011;53067;48.114;11.694;2023-04-16T01:46:17;4.67;;;4.27;;
16502;SDS011;53067;48.114;11.694;2023-04-16T01:48:48;4.70;;;4.30;;
16502;SDS011;53067;48.114;11.694;2023-04-16T01:51:15;5.33;;;4.73;;
16502;SDS011;53067;48.114;11.694;2023-04-16T01:53:43;4.93;;;4.53;;
16502;SDS011;53067;48.114;11.694;2023-04-16T01:56:10;4.83;;;4.43;;
16502;SDS011;53067;48.114;11.694;2023-04-16T01:58:38;5.10;;;4.60;;
16502;SDS011;53067;48.114;11.694;2023-04-16T02:01:07;4.80;;;4.40;;
16502;SDS011;53067;48.114;11.694;2023-04-16T02:03:35;4.73;;;4.37;;
16502;SDS011;53067;48.114;11.694;2023-04-16T02:06:03;4.43;;;4.13;;
16502;SDS011;53067;48.114;11.694;2023-04-16T02:08:30;4.87;;;4.47;;
16502;SDS011;53067;48.114;11.694;2023-04-16T02:10:58;4.93;;;4.53;;
16502;SDS011;53067;48.114;11.694;2023-04-16T02:13:26;4.60;;;4.20;;
16502;SDS011;53067;48.114;11.694;2023-04-16T02:15:53;4.30;;;4.00;;
16502;SDS011;53067;48.114;11.694;2023-04-16T02:18:21;4.13;;;3.87;;
16502;SDS011;53067;48.114;11.694;2023-04-16T02:20:48;4.37;;;4.07;;
16502;SDS011;53067;48.114;11.694;2023-04-16T02:23:16;5.47;;;4.90;;
16502;SDS011;53067;48.114;11.694;2023-04-16T02:25:44;5.23;;;4.83;;
16502;SDS011;53067;48.114;11.694;2023-04-16T02:28:13;4.33;;;4.03;;
16502;SDS011;53067;48.114;11.694;2023-04-16T02:30:42;4.47;;;4.17;;
16502;SDS011;53067;48.114;11.694;2023-04-16T02:33:10;4.83;;;4.43;;
16502;SDS011;53067;48.114;11.694;2023-04-16T02:35:38;4.13;;;3.83;;
16502;SDS011;53067;48.114;11.694;2023-04-16T02:38:06;4.63;;;4.23;;
16502;SDS011;53067;48.114;11.694;2023-04-16T02:40:34;4.80;;;4.40;;
16502;SDS011;53067;48.114;11.694;2023-04-16T02:43:02;4.63;;;4.23;;
16502;SDS011;53067;48.114;11.694;2023-04-16T02:45:30;5.40;;;4.90;;
16502;SDS011;53067;48.114;11.694;2023-04-16T02:47:57;4.50;;;4.20;;
16502;SDS011;53067;48.114;11.694;2023-04-16T02:50:25;4.53;;;4.13;;
16502;SDS011;53067;48.114;11.694;2023-04-16T02:52:52;4.93;;;4.53;;
16502;SDS011;53067;48.114;11.694;2023-04-16T02:55:20;5.90;;;4.93;;
16502;SDS011;53067;48.114;11.694;2023-04-16T02:57:47;5.10;;;4.70;;
16502;SDS011;53067;48.114;11.694;2023-04-16T03:00:16;5.40;;;4.97;;
16502;SDS011;53067;48.114;11.694;2023-04-16T03:02:44;5.37;;;4.90;;
16502;SDS011;53067;48.114;11.694;2023-04-16T03:05:12;5.30;;;4.90;;
16502;SDS011;53067;48.114;11.694;2023-04-16T03:07:39;5.33;;;4.83;;
16502;SDS011;53067;48.114;11.694;2023-04-16T03:10:07;5.43;;;5.03;;
16502;SDS011;53067;48.114;11.694;2023-04-16T03:12:34;5.70;;;5.10;;
16502;SDS011;53067;48.114;11.694;2023-04-16T03:15:02;5.10;;;4.70;;
16502;SDS011;53067;48.114;11.694;2023-04-16T03:17:30;5.87;;;5.17;;
16502;SDS011;53067;48.114;11.694;2023-04-16T03:19:58;5.07;;;4.67;;
16502;SDS011;53067;48.114;11.694;2023-04-16T03:22:25;5.67;;;4.67;;
16502;SDS011;53067;48.114;11.694;2023-04-16T03:24:53;5.30;;;4.80;;
16502;SDS011;53067;48.114;11.694;2023-04-16T03:27:20;4.70;;;4.30;;
16502;SDS011;53067;48.114;11.694;2023-04-16T03:29:48;5.10;;;4.30;;
16502;SDS011;53067;48.114;11.694;2023-04-16T03:32:15;4.13;;;3.83;;
16502;SDS011;53067;48.114;11.694;2023-04-16T03:34:43;4.53;;;4.23;;
16502;SDS011;53067;48.114;11.694;2023-04-16T03:37:11;4.50;;;4.20;;
16502;SDS011;53067;48.114;11.694;2023-04-16T03:39:38;4.90;;;4.50;;
16502;SDS011;53067;48.114;11.694;2023-04-16T03:42:06;4.60;;;4.30;;
16502;SDS011;53067;48.114;11.694;2023-04-16T03:44:33;4.53;;;4.13;;
16502;SDS011;53067;48.114;11.694;2023-04-16T03:47:01;4.23;;;3.93;;
16502;SDS011;53067;48.114;11.694;2023-04-16T03:49:28;4.77;;;4.37;;
16502;SDS011;53067;48.114;11.694;2023-04-16T03:51:56;4.27;;;3.93;;
16502;SDS011;53067;48.114;11.694;2023-04-16T03:54:23;4.97;;;4.17;;
16502;SDS011;53067;48.114;11.694;2023-04-16T03:56:51;4.50;;;4.10;;
16502;SDS011;53067;48.114;11.694;2023-04-16T03:59:19;4.77;;;4.37;;
16502;SDS011;53067;48.114;11.694;2023-04-16T04:01:46;4.50;;;4.20;;
16502;SDS011;53067;48.114;11.694;2023-04-16T04:04:14;3.97;;;3.67;;
16502;SDS011;53067;48.114;11.694;2023-04-16T04:06:42;4.50;;;4.10;;
16502;SDS011;53067;48.114;11.694;2023-04-16T04:09:12;4.30;;;4.00;;
16502;SDS011;53067;48.114;11.694;2023-04-16T04:11:41;4.40;;;4.00;;
16502;SDS011;53067;48.114;11.694;2023-04-16T04:14:09;4.63;;;4.13;;
16502;SDS011;53067;48.114;11.694;2023-04-16T04:16:36;3.77;;;3.47;;
16502;SDS011;53067;48.114;11.694;2023-04-16T04:19:04;3.47;;;3.27;;
16502;SDS011;53067;48.114;11.694;2023-04-16T04:21:31;4.53;;;4.13;;
16502;SDS011;53067;48.114;11.694;2023-04-16T04:23:59;4.10;;;3.80;;
16502;SDS011;53067;48.114;11.694;2023-04-16T04:26:26;3.83;;;3.53;;
16502;SDS011;53067;48.114;11.694;2023-04-16T04:28:53;4.07;;;3.77;;
16502;SDS011;53067;48.114;11.694;2023-04-16T04:31:21;4.33;;;4.03;;
16502;SDS011;53067;48.114;11.694;2023-04-16T04:33:48;4.07;;;3.77;;
16502;SDS011;53067;48.114;11.694;2023-04-16T04:36:16;4.30;;;4.00;;
16502;SDS011;53067;48.114;11.694;2023-04-16T04:38:43;4.00;;;3.70;;
16502;SDS011;53067;48.114;11.694;2023-04-16T04:41:11;4.00;;;3.70;;
16502;SDS011;53067;48.114;11.694;2023-04-16T04:43:38;3.77;;;3.57;;
16502;SDS011;53067;48.114;11.694;2023-04-16T04:46:11;4.40;;;4.10;;
16502;SDS011;53067;48.114;11.694;2023-04-16T04:48:39;4.03;;;3.73;;
16502;SDS011;53067;48.114;11.694;2023-04-16T04:51:06;3.97;;;3.53;;
16502;SDS011;53067;48.114;11.694;2023-04-16T04:53:34;4.13;;;3.83;;
16502;SDS011;53067;48.114;11.694;2023-04-16T04:56:02;4.23;;;3.93;;
16502;SDS011;53067;48.114;11.694;2023-04-16T04:58:29;4.50;;;4.20;;
16502;SDS011;53067;48.114;11.694;2023-04-16T05:00:57;4.03;;;3.60;;
16502;SDS011;53067;48.114;11.694;2023-04-16T05:03:24;4.13;;;3.83;;
16502;SDS011;53067;48.114;11.694;2023-04-16T05:05:52;4.47;;;4.17;;
16502;SDS011;53067;48.114;11.694;2023-04-16T05:08:20;4.20;;;3.90;;
16502;SDS011;53067;48.114;11.694;2023-04-16T05:10:47;3.90;;;3.63;;
16502;SDS011;53067;48.114;11.694;2023-04-16T05:13:15;4.20;;;3.90;;
16502;SDS011;53067;48.114;11.694;2023-04-16T05:15:42;4.23;;;3.80;;
16502;SDS011;53067;48.114;11.694;2023-04-16T05:18:10;3.97;;;3.73;;
16502;SDS011;53067;48.114;11.694;2023-04-16T05:20:38;4.20;;;3.90;;
16502;SDS011;53067;48.114;11.694;2023-04-16T05:23:05;3.73;;;3.47;;
16502;SDS011;53067;48.114;11.694;2023-04-16T05:25:33;4.00;;;3.70;;
16502;SDS011;53067;48.114;11.694;2023-04-16T05:28:00;3.40;;;3.20;;
16502;SDS011;53067;48.114;11.694;2023-04-16T05:30:28;3.30;;;3.10;;
16502;SDS011;53067;48.114;11.694;2023-04-16T05:32:56;3.67;;;3.47;;
16502;SDS011;53067;48.114;11.694;2023-04-16T05:35:23;3.30;;;3.10;;
16502;SDS011;53067;48.114;11.694;2023-04-16T05:37:51;2.83;;;2.63;;
16502;SDS011;53067;48.114;11.694;2023-04-16T05:40:18;3.50;;;3.20;;
16502;SDS011;53067;48.114;11.694;2023-04-16T05:42:46;3.07;;;2.87;;
16502;SDS011;53067;48.114;11.694;2023-04-16T05:45:14;3.03;;;2.83;;
16502;SDS011;53067;48.114;11.694;2023-04-16T05:47:41;2.80;;;2.60;;
16502;SDS011;53067;48.114;11.694;2023-04-16T05:50:09;2.83;;;2.63;;
16502;SDS011;53067;48.114;11.694;2023-04-16T05:52:37;2.70;;;2.53;;
16502;SDS011;53067;48.114;11.694;2023-04-16T05:55:06;2.50;;;2.30;;
16502;SDS011;53067;48.114;11.694;2023-04-16T05:57:53;2.00;;;1.90;;
16502;SDS011;53067;48.114;11.694;2023-04-16T06:00:20;1.93;;;1.83;;
16502;SDS011;53067;48.114;11.694;2023-04-16T06:02:48;2.50;;;2.40;;
16502;SDS011;53067;48.114;11.694;2023-04-16T06:05:16;2.13;;;2.03;;
16502;SDS011;53067;48.114;11.694;2023-04-16T06:07:43;1.90;;;1.80;;
16502;SDS011;53067;48.114;11.694;2023-04-16T06:10:11;1.70;;;1.67;;
16502;SDS011;53067;48.114;11.694;2023-04-16T06:12:38;2.23;;;2.03;;
16502;SDS011;53067;48.114;11.694;2023-04-16T06:15:06;1.70;;;1.60;;
16502;SDS011;53067;48.114;11.694;2023-04-16T06:17:34;2.07;;;1.97;;
16502;SDS011;53067;48.114;11.694;2023-04-16T06:20:02;1.80;;;1.70;;
16502;SDS011;53067;48.114;11.694;2023-04-16T06:22:29;1.83;;;1.73;;
16502;SDS011;53067;48.114;11.694;2023-04-16T06:24:57;1.67;;;1.57;;
16502;SDS011;53067;48.114;11.694;2023-04-16T06:27:25;1.50;;;1.50;;
16502;SDS011;53067;48.114;11.694;2023-04-16T06:29:52;1.50;;;1.50;;
16502;SDS011;53067;48.114;11.694;2023-04-16T06:32:20;1.60;;;1.50;;
16502;SDS011;53067;48.114;11.694;2023-04-16T06:34:47;1.63;;;1.57;;
16502;SDS011;53067;48.114;11.694;2023-04-16T06:37:15;1.57;;;1.47;;
16502;SDS011;53067;48.114;11.694;2023-04-16T06:39:42;1.10;;;1.10;;
16502;SDS011;53067;48.114;11.694;2023-04-16T06:42:10;1.37;;;1.27;;
16502;SDS011;53067;48.114;11.694;2023-04-16T06:44:38;1.60;;;1.53;;
16502;SDS011;53067;48.114;11.694;2023-04-16T06:47:05;1.00;;;1.00;;
16502;SDS011;53067;48.114;11.694;2023-04-16T06:49:33;0.97;;;0.97;;
16502;SDS011;53067;48.114;11.694;2023-04-16T06:52:00;1.10;;;1.10;;
16502;SDS011;53067;48.114;11.694;2023-04-16T06:54:28;1.00;;;1.00;;
16502;SDS011;53067;48.114;11.694;2023-04-16T06:56:56;1.00;;;1.00;;
16502;SDS011;53067;48.114;11.694;2023-04-16T06:59:23;1.20;;;1.20;;
16502;SDS011;53067;48.114;11.694;2023-04-16T07:01:51;0.93;;;0.93;;
16502;SDS011;53067;48.114;11.694;2023-04-16T07:04:18;0.80;;;0.80;;
16502;SDS011;53067;48.114;11.694;2023-04-16T07:06:46;0.97;;;0.97;;
16502;SDS011;53067;48.114;11.694;2023-04-16T07:09:14;0.90;;;0.90;;
16502;SDS011;53067;48.114;11.694;2023-04-16T07:11:43;0.80;;;0.80;;
16502;SDS011;53067;48.114;11.694;2023-04-16T07:14:10;0.80;;;0.80;;
16502;SDS011;53067;48.114;11.694;2023-04-16T07:16:38;0.73;;;0.73;;
16502;SDS011;53067;48.114;11.694;2023-04-16T07:19:05;0.80;;;0.80;;
16502;SDS011;53067;48.114;11.694;2023-04-16T07:21:33;0.93;;;0.90;;
16502;SDS011;53067;48.114;11.694;2023-04-16T07:24:01;1.43;;;0.70;;
16502;SDS011;53067;48.114;11.694;2023-04-16T07:26:29;0.90;;;0.90;;
16502;SDS011;53067;48.114;11.694;2023-04-16T07:28:56;0.90;;;0.90;;
16502;SDS011;53067;48.114;11.694;2023-04-16T07:31:24;1.20;;;1.10;;
16502;SDS011;53067;48.114;11.694;2023-04-16T07:33:51;1.70;;;1.60;;
16502;SDS011;53067;48.114;11.694;2023-04-16T07:36:19;0.90;;;0.90;;
16502;SDS011;53067;48.114;11.694;2023-04-16T07:38:46;1.30;;;1.30;;
16502;SDS011;53067;48.114;11.694;2023-04-16T07:41:14;1.10;;;1.10;;
16502;SDS011;53067;48.114;11.694;2023-04-16T07:43:42;1.00;;;1.00;;
16502;SDS011;53067;48.114;11.694;2023-04-16T07:46:09;1.00;;;1.00;;
16502;SDS011;53067;48.114;11.694;2023-04-16T07:48:36;0.80;;;0.80;;
16502;SDS011;53067;48.114;11.694;2023-04-16T07:51:04;0.80;;;0.80;;
16502;SDS011;53067;48.114;11.694;2023-04-16T07:53:32;1.10;;;1.10;;
16502;SDS011;53067;48.114;11.694;2023-04-16T07:55:59;1.27;;;1.17;;
16502;SDS011;53067;48.114;11.694;2023-04-16T07:58:27;1.33;;;1.30;;
16502;SDS011;53067;48.114;11.694;2023-04-16T08:00:54;1.20;;;1.20;;
16502;SDS011;53067;48.114;11.694;2023-04-16T08:03:22;0.60;;;0.60;;
16502;SDS011;53067;48.114;11.694;2023-04-16T08:05:49;1.07;;;1.07;;
16502;SDS011;53067;48.114;11.694;2023-04-16T08:08:17;0.90;;;0.90;;
16502;SDS011;53067;48.114;11.694;2023-04-16T08:10:44;0.60;;;0.60;;
16502;SDS011;53067;48.114;11.694;2023-04-16T08:13:12;0.70;;;0.70;;
16502;SDS011;53067;48.114;11.694;2023-04-16T08:15:40;0.60;;;0.60;;
16502;SDS011;53067;48.114;11.694;2023-04-16T08:18:07;0.60;;;0.60;;
16502;SDS011;53067;48.114;11.694;2023-04-16T08:20:37;0.80;;;0.80;;
16502;SDS011;53067;48.114;11.694;2023-04-16T08:23:04;0.83;;;0.80;;
16502;SDS011;53067;48.114;11.694;2023-04-16T08:25:32;0.90;;;0.90;;
16502;SDS011;53067;48.114;11.694;2023-04-16T08:27:59;0.63;;;0.63;;
16502;SDS011;53067;48.114;11.694;2023-04-16T08:30:27;0.83;;;0.70;;
16502;SDS011;53067;48.114;11.694;2023-04-16T08:32:55;0.70;;;0.70;;
16502;SDS011;53067;48.114;11.694;2023-04-16T08:35:23;0.70;;;0.70;;
16502;SDS011;53067;48.114;11.694;2023-04-16T08:37:50;0.83;;;0.83;;
16502;SDS011;53067;48.114;11.694;2023-04-16T08:40:19;1.60;;;1.50;;
16502;SDS011;53067;48.114;11.694;2023-04-16T08:42:53;0.80;;;0.80;;
16502;SDS011;53067;48.114;11.694;2023-04-16T08:45:22;0.90;;;0.90;;
16502;SDS011;53067;48.114;11.694;2023-04-16T08:47:52;0.80;;;0.80;;
16502;SDS011;53067;48.114;11.694;2023-04-16T08:50:23;0.70;;;0.70;;
16502;SDS011;53067;48.114;11.694;2023-04-16T08:52:52;2.23;;;2.07;;
16502;SDS011;53067;48.114;11.694;2023-04-16T08:55:25;0.63;;;0.63;;
16502;SDS011;53067;48.114;11.694;2023-04-16T08:57:58;1.00;;;1.00;;
16502;SDS011;53067;48.114;11.694;2023-04-16T09:00:29;0.57;;;0.57;;
16502;SDS011;53067;48.114;11.694;2023-04-16T09:02:59;0.97;;;0.97;;
16502;SDS011;53067;48.114;11.694;2023-04-16T09:05:27;0.60;;;0.60;;
16502;SDS011;53067;48.114;11.694;2023-04-16T09:07:56;0.60;;;0.60;;
16502;SDS011;53067;48.114;11.694;2023-04-16T09:10:24;0.80;;;0.80;;
16502;SDS011;53067;48.114;11.694;2023-04-16T09:12:55;0.80;;;0.80;;
16502;SDS011;53067;48.114;11.694;2023-04-16T09:15:23;1.50;;;1.50;;
16502;SDS011;53067;48.114;11.694;2023-04-16T09:17:51;0.93;;;0.93;;
16502;SDS011;53067;48.114;11.694;2023-04-16T09:20:21;0.90;;;0.90;;
16502;SDS011;53067;48.114;11.694;2023-04-16T09:22:48;1.13;;;1.10;;
16502;SDS011;53067;48.114;11.694;2023-04-16T09:25:16;1.33;;;1.23;;
16502;SDS011;53067;48.114;11.694;2023-04-16T09:27:47;2.00;;;1.90;;
16502;SDS011;53067;48.114;11.694;2023-04-16T09:30:20;0.93;;;0.93;;
16502;SDS011;53067;48.114;11.694;2023-04-16T09:32:52;0.60;;;0.60;;
16502;SDS011;53067;48.114;11.694;2023-04-16T09:35:45;0.60;;;0.60;;
16502;SDS011;53067;48.114;11.694;2023-04-16T09:38:17;0.50;;;0.50;;
16502;SDS011;53067;48.114;11.694;2023-04-16T09:40:45;0.60;;;0.60;;
16502;SDS011;53067;48.114;11.694;2023-04-16T09:43:14;0.97;;;0.97;;
16502;SDS011;53067;48.114;11.694;2023-04-16T09:45:49;0.70;;;0.70;;
16502;SDS011;53067;48.114;11.694;2023-04-16T09:48:30;0.50;;;0.50;;
16502;SDS011;53067;48.114;11.694;2023-04-16T09:50:59;0.60;;;0.60;;
16502;SDS011;53067;48.114;11.694;2023-04-16T09:53:28;0.60;;;0.60;;
16502;SDS011;53067;48.114;11.694;2023-04-16T09:56:00;0.80;;;0.80;;
16502;SDS011;53067;48.114;11.694;2023-04-16T09:58:29;0.70;;;0.70;;
16502;SDS011;53067;48.114;11.694;2023-04-16T10:01:00;0.70;;;0.70;;
16502;SDS011;53067;48.114;11.694;2023-04-16T10:03:29;0.70;;;0.70;;
16502;SDS011;53067;48.114;11.694;2023-04-16T10:06:06;0.70;;;0.70;;
16502;SDS011;53067;48.114;11.694;2023-04-16T10:08:36;0.53;;;0.53;;
16502;SDS011;53067;48.114;11.694;2023-04-16T10:11:05;0.80;;;0.80;;
16502;SDS011;53067;48.114;11.694;2023-04-16T10:13:33;0.60;;;0.60;;
16502;SDS011;53067;48.114;11.694;2023-04-16T10:16:00;0.70;;;0.70;;
16502;SDS011;53067;48.114;11.694;2023-04-16T10:18:29;0.70;;;0.70;;
16502;SDS011;53067;48.114;11.694;2023-04-16T10:20:57;0.60;;;0.60;;
16502;SDS011;53067;48.114;11.694;2023-04-16T10:23:25;0.70;;;0.70;;
16502;SDS011;53067;48.114;11.694;2023-04-16T10:25:53;1.37;;;0.70;;
16502;SDS011;53067;48.114;11.694;2023-04-16T10:28:21;0.60;;;0.60;;
16502;SDS011;53067;48.114;11.694;2023-04-16T10:30:50;0.50;;;0.50;;
16502;SDS011;53067;48.114;11.694;2023-04-16T10:33:19;0.60;;;0.60;;
16502;SDS011;53067;48.114;11.694;2023-04-16T10:35:49;0.60;;;0.60;;
16502;SDS011;53067;48.114;11.694;2023-04-16T10:38:23;0.57;;;0.57;;
16502;SDS011;53067;48.114;11.694;2023-04-16T10:40:58;0.90;;;0.90;;
16502;SDS011;53067;48.114;11.694;2023-04-16T10:43:28;1.10;;;1.10;;
16502;SDS011;53067;48.114;11.694;2023-04-16T10:46:25;0.70;;;0.70;;
16502;SDS011;53067;48.114;11.694;2023-04-16T10:49:02;0.93;;;0.93;;
16502;SDS011;53067;48.114;11.694;2023-04-16T10:54:41;0.80;;;0.80;;
16502;SDS011;53067;48.114;11.694;2023-04-16T10:57:09;0.77;;;0.77;;
16502;SDS011;53067;48.114;11.694;2023-04-16T10:59:42;0.60;;;0.60;;
16502;SDS011;53067;48.114;11.694;2023-04-16T11:02:14;0.60;;;0.60;;
16502;SDS011;53067;48.114;11.694;2023-04-16T11:04:43;0.60;;;0.60;;
16502;SDS011;53067;48.114;11.694;2023-04-16T11:07:17;0.63;;;0.63;;
16502;SDS011;53067;48.114;11.694;2023-04-16T11:12:23;0.80;;;0.80;;
16502;SDS011;53067;48.114;11.694;2023-04-16T11:15:04;0.70;;;0.70;;
16502;SDS011;53067;48.114;11.694;2023-04-16T11:22:47;0.70;;;0.70;;
16502;SDS011;53067;48.114;11.694;2023-04-16T11:25:22;0.77;;;0.77;;
16502;SDS011;53067;48.114;11.694;2023-04-16T11:27:51;0.70;;;0.70;;
16502;SDS011;53067;48.114;11.694;2023-04-16T11:30:29;0.80;;;0.80;;
16502;SDS011;53067;48.114;11.694;2023-04-16T11:33:01;0.80;;;0.80;;
16502;SDS011;53067;48.114;11.694;2023-04-16T11:35:28;1.07;;;0.80;;
16502;SDS011;53067;48.114;11.694;2023-04-16T11:37:56;0.83;;;0.83;;
16502;SDS011;53067;48.114;11.694;2023-04-16T11:40:24;0.97;;;0.97;;
16502;SDS011;53067;48.114;11.694;2023-04-16T11:43:00;0.80;;;0.80;;
16502;SDS011;53067;48.114;11.694;2023-04-16T11:45:32;0.70;;;0.70;;
16502;SDS011;53067;48.114;11.694;2023-04-16T11:48:00;0.97;;;0.97;;
16502;SDS011;53067;48.114;11.694;2023-04-16T11:50:28;1.00;;;1.00;;
16502;SDS011;53067;48.114;11.694;2023-04-16T11:52:56;1.70;;;1.27;;
16502;SDS011;53067;48.114;11.694;2023-04-16T11:55:25;1.60;;;1.50;;
16502;SDS011;53067;48.114;11.694;2023-04-16T11:57:53;1.40;;;1.30;;
16502;SDS011;53067;48.114;11.694;2023-04-16T12:00:21;1.30;;;1.30;;
16502;SDS011;53067;48.114;11.694;2023-04-16T12:02:49;1.03;;;1.03;;
16502;SDS011;53067;48.114;11.694;2023-04-16T12:05:35;1.10;;;1.10;;
16502;SDS011;53067;48.114;11.694;2023-04-16T12:08:05;1.10;;;1.00;;
16502;SDS011;53067;48.114;11.694;2023-04-16T12:10:37;1.37;;;1.30;;
16502;SDS011;53067;48.114;11.694;2023-04-16T12:13:09;1.03;;;1.03;;
16502;SDS011;53067;48.114;11.694;2023-04-16T12:15:56;1.47;;;1.37;;
16502;SDS011;53067;48.114;11.694;2023-04-16T12:18:21;1.10;;;1.10;;
16502;SDS011;53067;48.114;11.694;2023-04-16T12:20:51;1.43;;;1.33;;
16502;SDS011;53067;48.114;11.694;2023-04-16T12:23:29;1.33;;;1.30;;
16502;SDS011;53067;48.114;11.694;2023-04-16T12:25:58;1.17;;;1.17;;
16502;SDS011;53067;48.114;11.694;2023-04-16T12:28:35;1.20;;;1.20;;
16502;SDS011;53067;48.114;11.694;2023-04-16T12:31:04;1.30;;;1.30;;
16502;SDS011;53067;48.114;11.694;2023-04-16T12:33:32;1.20;;;1.20;;
16502;SDS011;53067;48.114;11.694;2023-04-16T12:36:00;1.47;;;1.37;;
16502;SDS011;53067;48.114;11.694;2023-04-16T12:38:29;1.10;;;1.10;;
16502;SDS011;53067;48.114;11.694;2023-04-16T12:40:57;1.43;;;1.33;;
16502;SDS011;53067;48.114;11.694;2023-04-16T12:43:26;0.90;;;0.90;;
16502;SDS011;53067;48.114;11.694;2023-04-16T12:45:54;0.80;;;0.80;;
16502;SDS011;53067;48.114;11.694;2023-04-16T12:48:21;1.10;;;1.10;;
16502;SDS011;53067;48.114;11.694;2023-04-16T12:50:51;1.00;;;1.00;;
16502;SDS011;53067;48.114;11.694;2023-04-16T12:53:19;1.67;;;1.57;;
16502;SDS011;53067;48.114;11.694;2023-04-16T12:55:47;2.10;;;2.00;;
16502;SDS011;53067;48.114;11.694;2023-04-16T12:58:14;4.30;;;3.90;;
16502;SDS011;53067;48.114;11.694;2023-04-16T13:00:42;1.20;;;1.20;;
16502;SDS011;53067;48.114;11.694;2023-04-16T13:03:09;0.80;;;0.80;;
16502;SDS011;53067;48.114;11.694;2023-04-16T13:05:37;1.03;;;1.03;;
16502;SDS011;53067;48.114;11.694;2023-04-16T13:08:05;1.50;;;1.40;;
16502;SDS011;53067;48.114;11.694;2023-04-16T13:10:33;0.97;;;0.97;;
16502;SDS011;53067;48.114;11.694;2023-04-16T13:13:01;1.03;;;1.03;;
16502;SDS011;53067;48.114;11.694;2023-04-16T13:15:28;1.70;;;1.60;;
16502;SDS011;53067;48.114;11.694;2023-04-16T13:17:56;0.83;;;0.83;;
16502;SDS011;53067;48.114;11.694;2023-04-16T13:20:23;1.00;;;1.00;;
16502;SDS011;53067;48.114;11.694;2023-04-16T13:22:51;0.80;;;0.80;;
16502;SDS011;53067;48.114;11.694;2023-04-16T13:25:19;0.80;;;0.80;;
16502;SDS011;53067;48.114;11.694;2023-04-16T13:27:46;0.77;;;0.77;;
16502;SDS011;53067;48.114;11.694;2023-04-16T13:30:14;1.00;;;1.00;;
16502;SDS011;53067;48.114;11.694;2023-04-16T13:32:41;1.00;;;1.00;;
16502;SDS011;53067;48.114;11.694;2023-04-16T13:35:09;1.73;;;1.63;;
16502;SDS011;53067;48.114;11.694;2023-04-16T13:37:37;1.50;;;1.40;;
16502;SDS011;53067;48.114;11.694;2023-04-16T13:40:05;1.03;;;1.03;;
16502;SDS011;53067;48.114;11.694;2023-04-16T13:42:35;1.13;;;1.07;;
16502;SDS011;53067;48.114;11.694;2023-04-16T13:45:03;0.83;;;0.80;;
16502;SDS011;53067;48.114;11.694;2023-04-16T13:47:31;0.70;;;0.70;;
16502;SDS011;53067;48.114;11.694;2023-04-16T13:49:58;0.90;;;0.90;;
16502;SDS011;53067;48.114;11.694;2023-04-16T13:52:26;0.90;;;0.90;;
16502;SDS011;53067;48.114;11.694;2023-04-16T13:54:53;0.70;;;0.70;;
16502;SDS011;53067;48.114;11.694;2023-04-16T13:57:21;0.87;;;0.87;;
16502;SDS011;53067;48.114;11.694;2023-04-16T13:59:48;0.93;;;0.93;;
16502;SDS011;53067;48.114;11.694;2023-04-16T14:02:16;0.90;;;0.90;;
16502;SDS011;53067;48.114;11.694;2023-04-16T14:04:44;1.83;;;1.50;;
16502;SDS011;53067;48.114;11.694;2023-04-16T14:07:11;1.60;;;1.50;;
16502;SDS011;53067;48.114;11.694;2023-04-16T14:09:40;1.63;;;1.53;;
16502;SDS011;53067;48.114;11.694;2023-04-16T14:12:07;1.13;;;1.07;;
16502;SDS011;53067;48.114;11.694;2023-04-16T14:14:35;0.70;;;0.70;;
16502;SDS011;53067;48.114;11.694;2023-04-16T14:17:03;0.80;;;0.80;;
16502;SDS011;53067;48.114;11.694;2023-04-16T14:19:32;1.33;;;0.90;;
16502;SDS011;53067;48.114;11.694;2023-04-16T14:21:59;1.10;;;1.00;;
16502;SDS011;53067;48.114;11.694;2023-04-16T14:24:27;0.70;;;0.70;;
16502;SDS011;53067;48.114;11.694;2023-04-16T14:26:55;0.80;;;0.80;;
16502;SDS011;53067;48.114;11.694;2023-04-16T14:29:22;0.80;;;0.80;;
16502;SDS011;53067;48.114;11.694;2023-04-16T14:31:50;0.80;;;0.80;;
16502;SDS011;53067;48.114;11.694;2023-04-16T14:34:18;1.00;;;0.90;;
16502;SDS011;53067;48.114;11.694;2023-04-16T14:36:45;1.20;;;0.80;;
16502;SDS011;53067;48.114;11.694;2023-04-16T14:39:14;0.73;;;0.73;;
16502;SDS011;53067;48.114;11.694;2023-04-16T14:41:42;0.70;;;0.70;;
16502;SDS011;53067;48.114;11.694;2023-04-16T14:44:09;1.10;;;0.83;;
16502;SDS011;53067;48.114;11.694;2023-04-16T14:46:37;1.13;;;0.70;;
16502;SDS011;53067;48.114;11.694;2023-04-16T14:49:05;0.77;;;0.70;;
16502;SDS011;53067;48.114;11.694;2023-04-16T14:51:33;0.80;;;0.80;;